Khoy, Iran
Current Conditions -  °F | °C
As of 4:55 PM on Friday 24 Oct 2014 (Local Time) from OITU Reporting Station
Scattered Clouds Scattered Clouds  
Wind Chill: 59°   Ceiling: Unl
Heat Index: 59°   Visibility: 6mi
Dew Point: 41°   Wind: 5mph
Humidity: 51%   Direction: 110°ESE
Pressure: 30.09"   Gusts: NA
Location:  38.53°N, 44.97°E
Report Text: OITU 241355Z 11004KT 9999 SCT040 15/05 Q1019
Loading
Personal Weather Stations






























Interactive Weather Map
Tropical Storm Tracking
New forecast layout! Learn more

10-Day Weather Forecast

Advertisements
Track Severe Weather on mobile